Октябрьское (Хелипарк Брянск)

Карта отелей и гостиниц, располагающихся рядом с аэропортом Октябрьское (Хелипарк Брянск) :

Октябрьское (Хелипарк Брянск) Брянская область 53° 12' 46.1916" N, 34° 11' 4.5384" E
Код аэродрома ИКАО
HG5L
Код аэродрома RU
ХГ5Л
Координаты
N53.21283° E034.18459°
Превышение над уровнем моря
200
Основная полоса
07/25
Курс магнитный
071,1/251,1
Длина основной ВПП
13
Ширина основной ВПП
13
Покрытие основной ВПП
Твёрдое
Освещение ВПП
Нет
Тип: 
Вертодром
Класс аэродрома: 
Принадлежность: 
АОН
Статус: 
Действующий
Сайт: 
www.helipark32.ru
E-mail аэродрома: 
dehanter32@gmail.com
Страна: 
Россия
Регион: 
Брянская область
Город: 
Дополнительная информация: 
Владелец ПП: субъект АОН (физ. лицо). АНППП зарегистрирован в МТУ ВТ ЦР ФАВТ 28 апр 2015 №ЦП3-404. Ограничения: вертолёты до 3100 кг, сектор 351°-211° закрыт для посадки ВС. Класс ВП "С" (контролируемый), вне регламента работы аэродрома "Брянск" (1800-0900) класс ВП "G".

Найти трансфер

С помощью этой формы Вы можете найти трансфер из аэропорта Октябрьское (Хелипарк Брянск) в город, аэропорт или вокзал:

Карта места

Javascript is required to view this map.

Погода в аэропортах:

Авиационная погода в Вадсё

Регион: 
Погода METAR: 
ENVD 281020Z 20009KT 2500 BR VV003 M11/M12 Q1010 RMK ARCTIC SEAMOKE
Время наблюдения
2021-11-28T10:20:00Z
Температура C
-11.0
Точка росы
-12.0
Направление ветра
200
Скорость ветра (узлы)
9
Метео видимость
1.55
Явления погоды
BR
Условия полета
LIFR

Авиационная погода в Курске

Погода METAR: 
UUOK 281300Z 18002MPS 160V240 5000 BR OVC011 07/06 Q1008 R30/290050 TEMPO 1500 BR RMK QFE737/0983
Время наблюдения
2021-11-28T13:00:00Z
Температура C
7.0
Точка росы
6.0
Направление ветра
180
Скорость ветра (узлы)
4
Метео видимость
3.11
Явления погоды
BR
Условия полета
MVFR
Аэропорт подробнее: 

Авиационная погода в Перми

Регион: 
Погода METAR: 
USPP 281300Z 19006MPS 3700 -SN BKN026 M03/M06 Q1015 RESN R21/490242 TEMPO 1000 SN BKN007 RMK QFE751
Время наблюдения
2021-11-28T13:00:00Z
Температура C
-3.0
Точка росы
-6.0
Направление ветра
190
Скорость ветра (узлы)
12
Метео видимость
2.3
Явления погоды
-SN
Условия полета
IFR
Аэропорт подробнее: 

Авиационная погода в Ивало

Регион: 
Погода METAR: 
EFIV 281320Z AUTO 00000KT 9999 -SHSN OVC030 M22/M25 Q1009
Время наблюдения
2021-11-28T13:20:00Z
Температура C
-22.0
Точка росы
-25.0
Направление ветра
0
Скорость ветра (узлы)
0
Метео видимость
6.21
Явления погоды
-SHSN
Условия полета
MVFR